Time;durP1;ratioP1;P1;durP2;ratioP2;P2;SDS_P1;SDS_P2;PMS_P1;PMS_P2;Temp;Humidity;BMP_temperature;BMP_pressure;BME280_temperature;BME280_humidity;BME280_pressure;Samples;Min_cycle;Max_cycle;Signal;HPM_P1;HPM_P2
2022/01/09 00:04:39;;;;;;;0.40;0.35;;;12.00;55.40;;;;;;20535937;28;20030;-75
2022/01/09 00:14:40;;;;;;;1.42;0.50;;;12.00;55.50;;;;;;20535389;28;20132;-77
2022/01/09 00:24:41;;;;;;;0.80;0.43;;;11.90;55.60;;;;;;20573669;28;20454;-74
2022/01/09 00:34:41;;;;;;;1.27;0.70;;;12.00;55.70;;;;;;20582480;28;20046;-74
2022/01/09 00:44:42;;;;;;;1.27;0.50;;;11.90;55.70;;;;;;20582622;28;20035;-75
2022/01/09 00:54:42;;;;;;;2.55;0.70;;;11.90;55.70;;;;;;20581461;28;20074;-76
2022/01/09 01:04:43;;;;;;;1.25;0.40;;;11.90;55.80;;;;;;20581077;28;20437;-75
2022/01/09 01:14:44;;;;;;;0.95;0.47;;;11.90;55.80;;;;;;20564755;28;20469;-74
2022/01/09 01:24:46;;;;;;;2.90;0.43;;;11.90;55.90;;;;;;20563724;28;20049;-75
2022/01/09 01:34:46;;;;;;;1.10;0.45;;;11.90;56.00;;;;;;20578143;28;20057;-76
2022/01/09 01:44:50;;;;;;;0.73;0.40;;;11.90;56.10;;;;;;20545725;28;20122;-75
2022/01/09 01:54:50;;;;;;;0.20;0.20;;;11.90;56.10;;;;;;20561441;28;20400;-76
2022/01/09 02:04:52;;;;;;;0.85;0.55;;;11.90;56.10;;;;;;20560702;28;20110;-74
2022/01/09 02:14:52;;;;;;;0.28;0.20;;;11.90;56.20;;;;;;20575841;28;20063;-74
2022/01/09 02:24:53;;;;;;;1.25;0.57;;;11.90;56.20;;;;;;20575158;28;20178;-77
2022/01/09 02:34:53;;;;;;;1.02;0.40;;;11.80;56.20;;;;;;20542296;28;20469;-75
2022/01/09 02:44:57;;;;;;;0.50;0.30;;;11.90;56.30;;;;;;20540932;28;20039;-74
2022/01/09 02:55:14;;;;;;;1.25;0.60;;;11.80;56.30;;;;;;20557245;28;20031;-74
2022/01/09 03:05:14;;;;;;;0.20;0.20;;;11.80;56.40;;;;;;20544466;28;20038;-75
2022/01/09 03:15:15;;;;;;;0.35;0.30;;;11.80;56.40;;;;;;20539237;28;20043;-75
2022/01/09 03:25:16;;;;;;;1.00;0.30;;;11.80;56.60;;;;;;20554716;28;20114;-75
2022/01/09 03:35:17;;;;;;;0.45;0.20;;;11.70;56.70;;;;;;20553563;28;20046;-75
2022/01/09 03:45:18;;;;;;;1.25;0.40;;;11.60;56.90;;;;;;20553204;28;20572;-75
2022/01/09 03:55:20;;;;;;;0.93;0.40;;;11.50;57.10;;;;;;20552792;28;20073;-75
2022/01/09 04:05:24;;;;;;;0.60;0.30;;;11.40;57.30;;;;;;20568959;28;20082;-75
2022/01/09 04:15:26;;;;;;;0.50;0.30;;;11.30;57.60;;;;;;20583498;28;20493;-74
2022/01/09 04:25:28;;;;;;;1.17;0.40;;;11.20;57.90;;;;;;20551671;28;20074;-75
2022/01/09 04:35:29;;;;;;;0.47;0.30;;;11.10;58.30;;;;;;20566767;28;20093;-76
2022/01/09 04:45:30;;;;;;;0.30;0.30;;;11.00;58.70;;;;;;20550984;28;20043;-75
2022/01/09 04:55:34;;;;;;;0.40;0.40;;;10.90;58.90;;;;;;20550399;28;20409;-74
2022/01/09 05:05:36;;;;;;;0.30;0.28;;;10.90;59.10;;;;;;20550228;28;20050;-75
2022/01/09 05:15:37;;;;;;;0.73;0.40;;;10.90;59.20;;;;;;20594300;28;20066;-75
2022/01/09 05:25:38;;;;;;;0.55;0.35;;;11.80;57.70;;;;;;20547737;28;20528;-76
2022/01/09 05:35:38;;;;;;;0.28;0.20;;;12.90;55.10;;;;;;20578991;28;20043;-75
2022/01/09 05:45:39;;;;;;;0.30;0.30;;;13.80;52.80;;;;;;20594371;28;20038;-77
2022/01/09 05:55:39;;;;;;;0.75;0.22;;;14.80;50.60;;;;;;20638218;28;20065;-75
2022/01/09 06:05:40;;;;;;;0.25;0.20;;;15.50;48.50;;;;;;20735912;28;20034;-75
2022/01/09 06:15:40;;;;;;;0.38;0.17;;;15.80;47.50;;;;;;20673812;28;20129;-75
2022/01/09 06:25:41;;;;;;;0.20;0.10;;;15.90;47.10;;;;;;20637822;28;20401;-75
2022/01/09 06:35:42;;;;;;;0.35;0.20;;;15.80;47.20;;;;;;20637274;28;20504;-75
2022/01/09 06:45:43;;;;;;;0.55;0.50;;;15.40;47.50;;;;;;20653461;28;20117;-75
2022/01/09 06:55:45;;;;;;;0.40;0.25;;;14.60;48.80;;;;;;20651175;28;20042;-75
2022/01/09 07:05:46;;;;;;;0.20;0.20;;;13.80;50.40;;;;;;20637090;28;20053;-77
2022/01/09 07:15:47;;;;;;;0.50;0.20;;;13.20;51.80;;;;;;20650450;28;20034;-79
2022/01/09 07:25:49;;;;;;;0.25;0.20;;;12.70;52.90;;;;;;20689410;28;20125;-79
2022/01/09 07:35:50;;;;;;;0.85;0.28;;;12.40;54.00;;;;;;20636212;28;20046;-77
2022/01/09 07:45:52;;;;;;;0.20;0.20;;;12.10;54.70;;;;;;20644002;28;20057;-76
2022/01/09 07:55:54;;;;;;;0.73;0.52;;;12.00;55.30;;;;;;20630660;28;20050;-75
2022/01/09 08:05:55;;;;;;;0.55;0.28;;;11.90;55.50;;;;;;20645785;28;20161;-78
2022/01/09 08:15:55;;;;;;;1.37;0.30;;;11.90;55.80;;;;;;20647033;28;20067;-72
2022/01/09 08:25:57;;;;;;;0.40;0.40;;;11.90;56.00;;;;;;20646754;28;20298;-78
2022/01/09 08:35:58;;;;;;;2.03;0.52;;;11.90;56.20;;;;;;20645982;28;20104;-73
2022/01/09 08:45:58;;;;;;;0.30;0.30;;;11.90;56.20;;;;;;20666607;28;20034;-77
2022/01/09 08:56:00;;;;;;;0.30;0.30;;;11.90;56.40;;;;;;20636127;28;20037;-78
2022/01/09 09:06:02;;;;;;;1.15;0.70;;;11.80;56.50;;;;;;20661926;28;20625;-77
2022/01/09 09:16:03;;;;;;;0.93;0.40;;;11.80;56.60;;;;;;20659284;28;20037;-74
2022/01/09 09:26:04;;;;;;;0.68;0.40;;;11.80;57.40;;;;;;20640841;28;20545;-75
2022/01/09 09:36:06;;;;;;;0.60;0.30;;;11.70;56.80;;;;;;20646219;28;20081;-75
2022/01/09 09:46:06;;;;;;;0.98;0.50;;;11.70;57.00;;;;;;20630742;28;20045;-72
2022/01/09 09:56:07;;;;;;;0.98;0.38;;;11.70;57.10;;;;;;20636017;28;20042;-75
2022/01/09 10:06:08;;;;;;;0.40;0.32;;;11.70;57.20;;;;;;20619607;28;20034;-72
2022/01/09 10:16:09;;;;;;;0.47;0.35;;;11.70;57.20;;;;;;20634955;28;20042;-74
2022/01/09 10:26:11;;;;;;;0.65;0.40;;;11.60;57.30;;;;;;20650719;28;20046;-72
2022/01/09 10:36:11;;;;;;;0.20;0.20;;;11.60;57.40;;;;;;20631517;28;20086;-74
2022/01/09 10:46:12;;;;;;;1.05;0.40;;;11.60;57.50;;;;;;20655278;28;20050;-76
2022/01/09 10:56:21;;;;;;;0.70;0.30;;;11.60;57.50;;;;;;20626402;28;20030;-75
2022/01/09 11:06:23;;;;;;;0.50;0.30;;;11.50;57.60;;;;;;20632071;28;20069;-74
2022/01/09 11:16:34;;;;;;;0.45;0.30;;;11.60;57.50;;;;;;20660360;28;20134;-74
2022/01/09 11:27:12;;;;;;;0.60;0.40;;;12.40;56.00;;;;;;20635685;28;20081;-75
2022/01/09 11:37:40;;;;;;;1.77;0.30;;;13.30;53.80;;;;;;21071091;23;20125;-75
2022/01/09 11:47:48;;;;;;;;;;;14.10;52.10;;;;;;20641577;28;20037;-76
2022/01/09 11:57:56;;;;;;;;;;;14.80;50.30;;;;;;20649055;28;19921;-79
2022/01/09 12:07:57;;;;;;;0.80;0.40;;;15.30;48.90;;;;;;20649170;28;19909;-80
2022/01/09 12:18:00;;;;;;;1.15;0.52;;;15.50;48.30;;;;;;20645856;28;20053;-81
2022/01/09 12:28:09;;;;;;;0.25;0.20;;;15.50;48.10;;;;;;20657383;28;20030;-81
2022/01/09 12:38:17;;;;;;;0.40;0.22;;;15.40;48.10;;;;;;20665032;28;20054;-82
2022/01/09 12:48:20;;;;;;;1.05;0.50;;;15.10;48.60;;;;;;20632634;28;20038;-80
2022/01/09 12:58:40;;;;;;;0.32;0.32;;;14.30;49.80;;;;;;20578180;28;20039;-81
2022/01/09 13:08:48;;;;;;;1.42;0.70;;;13.70;51.40;;;;;;20535787;28;20035;-80
2022/01/09 13:18:49;;;;;;;0.85;0.50;;;13.10;52.60;;;;;;20576456;28;20112;-80
2022/01/09 13:28:51;;;;;;;1.27;0.75;;;12.70;53.60;;;;;;20629809;28;20033;-77
2022/01/09 13:38:57;;;;;;;1.02;0.50;;;12.50;54.60;;;;;;20643574;28;20141;-81
2022/01/09 13:48:58;;;;;;;2.10;0.53;;;12.30;55.20;;;;;;20661242;28;20106;-80
2022/01/09 13:58:58;;;;;;;6.28;1.52;;;12.20;55.70;;;;;;20659137;28;20302;-81
2022/01/09 14:08:59;;;;;;;1.55;0.70;;;12.20;56.00;;;;;;20642182;28;20030;-81
2022/01/09 14:19:04;;;;;;;1.50;0.60;;;12.20;56.30;;;;;;20658214;28;20034;-78
2022/01/09 14:29:04;;;;;;;1.15;0.50;;;12.20;56.40;;;;;;20641204;28;20053;-80
2022/01/09 14:39:08;;;;;;;0.98;0.40;;;12.20;56.80;;;;;;20672768;28;20389;-80
2022/01/09 14:49:09;;;;;;;2.75;0.68;;;12.20;57.00;;;;;;20652847;28;20034;-84
2022/01/09 14:59:13;;;;;;;2.75;0.70;;;12.10;57.80;;;;;;20655661;28;20046;-84
2022/01/09 15:09:16;;;;;;;1.80;0.65;;;12.20;57.40;;;;;;20654913;28;20038;-85
2022/01/09 15:19:16;;;;;;;4.10;1.00;;;12.00;57.60;;;;;;20657193;28;20440;-84
2022/01/09 15:29:19;;;;;;;3.00;0.70;;;12.00;57.90;;;;;;20661799;28;20431;-78
2022/01/09 15:39:19;;;;;;;2.33;1.20;;;11.90;58.10;;;;;;20649126;28;20054;-78
2022/01/09 15:49:23;;;;;;;4.03;0.90;;;12.20;57.80;;;;;;20636314;28;20033;-78
2022/01/09 15:59:23;;;;;;;3.03;1.10;;;13.10;55.90;;;;;;20706317;28;20069;-80
2022/01/09 16:09:24;;;;;;;2.40;0.82;;;13.90;54.10;;;;;;20714100;28;20500;-79
2022/01/09 16:19:25;;;;;;;2.80;0.90;;;14.70;52.30;;;;;;20724871;28;20069;-77
2022/01/09 16:29:26;;;;;;;3.38;1.00;;;15.10;51.10;;;;;;20730615;28;20347;-77
2022/01/09 16:39:28;;;;;;;3.58;0.77;;;15.30;50.50;;;;;;20711028;28;20176;-74
2022/01/09 16:49:29;;;;;;;2.55;1.15;;;15.20;50.10;;;;;;20705413;28;20412;-75
2022/01/09 16:59:29;;;;;;;4.03;1.25;;;14.70;50.90;;;;;;20699420;28;20049;-72
2022/01/09 17:09:30;;;;;;;1.73;0.60;;;14.00;52.30;;;;;;20735914;28;20116;-76
2022/01/09 17:19:31;;;;;;;3.58;0.82;;;13.40;53.70;;;;;;20726612;28;20046;-78
2022/01/09 17:29:31;;;;;;;2.20;1.00;;;12.90;54.90;;;;;;20723564;28;20044;-75
2022/01/09 17:39:32;;;;;;;4.25;0.80;;;12.50;55.90;;;;;;20721682;28;20136;-75
2022/01/09 17:49:38;;;;;;;1.85;1.08;;;12.30;56.80;;;;;;20737043;28;20034;-76
2022/01/09 17:59:39;;;;;;;3.75;1.42;;;12.10;57.30;;;;;;20752847;28;20107;-76
2022/01/09 18:09:39;;;;;;;3.00;1.20;;;12.10;58.40;;;;;;20748951;28;20041;-72
2022/01/09 18:19:40;;;;;;;5.10;1.00;;;12.00;58.00;;;;;;20701446;28;20038;-72
2022/01/09 18:29:41;;;;;;;2.72;1.10;;;12.00;58.00;;;;;;20717970;28;20295;-72
2022/01/09 18:39:41;;;;;;;5.93;2.15;;;12.10;58.10;;;;;;20716577;28;20042;-71
2022/01/09 18:49:42;;;;;;;4.13;1.30;;;12.10;58.10;;;;;;20732532;28;20030;-71
2022/01/09 18:59:43;;;;;;;5.43;1.30;;;12.10;58.10;;;;;;20731198;28;20400;-72
2022/01/09 19:09:44;;;;;;;3.00;0.98;;;12.10;58.10;;;;;;20731281;28;20091;-72
2022/01/09 19:19:45;;;;;;;4.30;0.88;;;12.10;58.10;;;;;;20712847;28;20053;-74
2022/01/09 19:29:46;;;;;;;3.88;1.13;;;12.20;58.10;;;;;;20656839;28;20034;-73
2022/01/09 19:39:47;;;;;;;3.03;1.08;;;12.20;58.80;;;;;;20593551;28;20141;-73
2022/01/09 19:49:47;;;;;;;3.07;0.93;;;12.10;58.10;;;;;;20554692;28;20416;-74
2022/01/09 19:59:48;;;;;;;1.92;0.85;;;12.10;58.20;;;;;;20580350;28;20308;-74
2022/01/09 20:09:49;;;;;;;2.38;0.82;;;12.10;58.20;;;;;;20576027;28;20096;-74
2022/01/09 20:19:49;;;;;;;1.85;0.90;;;12.10;58.20;;;;;;20585686;28;20035;-73
2022/01/09 20:29:50;;;;;;;1.92;1.10;;;12.10;58.20;;;;;;20572888;28;20389;-72
2022/01/09 20:39:50;;;;;;;2.80;1.10;;;12.10;58.30;;;;;;20585471;28;20481;-74
2022/01/09 20:49:51;;;;;;;2.00;0.75;;;12.10;58.30;;;;;;20585958;28;20035;-75
2022/01/09 20:59:51;;;;;;;3.37;1.10;;;12.10;58.30;;;;;;20617467;28;20043;-73
2022/01/09 21:09:52;;;;;;;5.20;1.15;;;12.10;58.30;;;;;;20603973;28;20684;-73
2022/01/09 21:19:53;;;;;;;2.58;0.80;;;12.10;58.30;;;;;;20607462;28;20030;-74
2022/01/09 21:29:53;;;;;;;3.80;1.17;;;12.00;58.30;;;;;;20545946;28;20397;-74
2022/01/09 21:39:54;;;;;;;4.03;1.20;;;12.00;58.30;;;;;;20606700;28;20581;-74
2022/01/09 21:49:54;;;;;;;1.75;0.90;;;12.00;58.40;;;;;;20580397;28;20031;-76
2022/01/09 21:59:55;;;;;;;4.00;1.33;;;12.00;58.40;;;;;;20574627;28;20042;-74
2022/01/09 22:09:56;;;;;;;3.17;1.05;;;12.00;58.40;;;;;;20542424;28;20045;-73
2022/01/09 22:19:58;;;;;;;1.90;0.77;;;12.00;58.50;;;;;;20557826;28;20050;-73
2022/01/09 22:29:58;;;;;;;2.67;0.98;;;12.00;58.50;;;;;;20556820;28;20035;-74
2022/01/09 22:39:59;;;;;;;2.67;0.90;;;12.00;58.50;;;;;;20555446;28;20053;-73
2022/01/09 22:50:00;;;;;;;3.53;1.20;;;12.00;58.60;;;;;;20539112;28;20469;-73
2022/01/09 23:00:00;;;;;;;2.28;1.65;;;12.00;58.60;;;;;;20538724;28;20255;-75
2022/01/09 23:10:01;;;;;;;2.83;1.40;;;12.00;58.70;;;;;;20553216;28;20366;-74
2022/01/09 23:20:03;;;;;;;3.63;1.30;;;11.90;58.80;;;;;;20536698;28;20066;-74
2022/01/09 23:30:05;;;;;;;3.63;1.23;;;11.90;58.70;;;;;;20552839;28;20039;-74
2022/01/09 23:40:11;;;;;;;3.33;0.82;;;11.90;58.80;;;;;;20551333;28;20133;-73
2022/01/09 23:50:24;;;;;;;2.50;1.17;;;11.90;58.80;;;;;;20520658;28;20108;-74
